sensor_id;sensor_type;location;lat;lon;timestamp;pressure;altitude;pressure_sealevel;temperature;humidity
3697;BME280;60662;48.810;8.872;2022-07-29T06:03:10;96381.34;;;19.68;70.62
3697;BME280;60662;48.810;8.872;2022-07-29T06:04:11;96388.56;;;19.87;70.40
3697;BME280;60662;48.810;8.872;2022-07-29T06:05:14;96396.97;;;19.71;70.66
3697;BME280;60662;48.810;8.872;2022-07-29T06:06:17;96400.72;;;19.69;70.96
3697;BME280;60662;48.810;8.872;2022-07-29T06:07:19;96396.44;;;19.78;70.07
3697;BME280;60662;48.810;8.872;2022-07-29T06:08:20;96395.91;;;20.05;69.42
3697;BME280;60662;48.810;8.872;2022-07-29T06:09:22;96407.38;;;20.15;69.28
3697;BME280;60662;48.810;8.872;2022-07-29T06:10:24;96402.19;;;20.04;69.57
3697;BME280;60662;48.810;8.872;2022-07-29T06:11:27;96402.22;;;19.83;70.06
3697;BME280;60662;48.810;8.872;2022-07-29T06:37:39;96418.44;;;20.71;66.66
3697;BME280;60662;48.810;8.872;2022-07-29T06:38:41;96418.44;;;20.81;67.14
3697;BME280;60662;48.810;8.872;2022-07-29T06:39:51;96424.06;;;20.87;66.33
3697;BME280;60662;48.810;8.872;2022-07-29T06:41:13;96420.69;;;20.85;65.77
3697;BME280;60662;48.810;8.872;2022-07-29T06:42:17;96426.69;;;20.97;66.09
3697;BME280;60662;48.810;8.872;2022-07-29T06:43:18;96425.72;;;21.08;65.54
3697;BME280;60662;48.810;8.872;2022-07-29T06:44:19;96418.59;;;21.09;65.30
3697;BME280;60662;48.810;8.872;2022-07-29T06:45:21;96427.69;;;21.16;65.33
3697;BME280;60662;48.810;8.872;2022-07-29T06:46:22;96425.56;;;21.00;65.77
3697;BME280;60662;48.810;8.872;2022-07-29T06:47:24;96425.72;;;21.08;65.01
3697;BME280;60662;48.810;8.872;2022-07-29T06:48:26;96421.25;;;21.18;65.05
3697;BME280;60662;48.810;8.872;2022-07-29T06:49:28;96429.63;;;21.24;65.52
3697;BME280;60662;48.810;8.872;2022-07-29T06:50:29;96429.09;;;21.30;65.04
3697;BME280;60662;48.810;8.872;2022-07-29T06:51:31;96433.94;;;21.44;65.18
3697;BME280;60662;48.810;8.872;2022-07-29T06:52:32;96436.88;;;21.61;64.76
3697;BME280;60662;48.810;8.872;2022-07-29T06:53:35;96429.63;;;21.63;63.92
3697;BME280;60662;48.810;8.872;2022-07-29T07:16:32;96447.34;;;22.57;59.82
3697;BME280;60662;48.810;8.872;2022-07-29T07:17:33;96451.34;;;22.71;59.42
3697;BME280;60662;48.810;8.872;2022-07-29T07:18:35;96445.97;;;22.81;59.36
3697;BME280;60662;48.810;8.872;2022-07-29T07:19:36;96449.88;;;22.59;59.46
3697;BME280;60662;48.810;8.872;2022-07-29T07:20:38;96447.06;;;22.88;59.35
3697;BME280;60662;48.810;8.872;2022-07-29T07:21:39;96449.19;;;23.03;58.82
3697;BME280;60662;48.810;8.872;2022-07-29T07:22:41;96439.69;;;23.18;57.75
3697;BME280;60662;48.810;8.872;2022-07-29T07:23:44;96449.34;;;23.37;57.18
3697;BME280;60662;48.810;8.872;2022-07-29T07:24:45;96449.53;;;23.36;57.46
3697;BME280;60662;48.810;8.872;2022-07-29T07:25:47;96450.25;;;23.10;58.15
3697;BME280;60662;48.810;8.872;2022-07-29T07:26:48;96442.56;;;23.07;58.50
3697;BME280;60662;48.810;8.872;2022-07-29T07:27:50;96448.97;;;22.96;58.56
3697;BME280;60662;48.810;8.872;2022-07-29T07:28:51;96443.38;;;22.89;58.64
3697;BME280;60662;48.810;8.872;2022-07-29T07:29:52;96450.47;;;22.98;58.38
3697;BME280;60662;48.810;8.872;2022-07-29T07:30:54;96449.78;;;23.14;58.34
3697;BME280;60662;48.810;8.872;2022-07-29T07:31:57;96454.31;;;23.32;57.90
3697;BME280;60662;48.810;8.872;2022-07-29T07:33:02;96454.78;;;23.27;57.33
3697;BME280;60662;48.810;8.872;2022-07-29T07:34:03;96445.75;;;22.74;58.15
3697;BME280;60662;48.810;8.872;2022-07-29T07:35:06;96449.44;;;22.63;59.07
3697;BME280;60662;48.810;8.872;2022-07-29T07:36:08;96449.84;;;22.87;58.50
3697;BME280;60662;48.810;8.872;2022-07-29T07:37:10;96452.66;;;22.85;58.29
3697;BME280;60662;48.810;8.872;2022-07-29T07:38:12;96455.44;;;23.11;57.24
3697;BME280;60662;48.810;8.872;2022-07-29T07:39:14;96450.19;;;23.20;55.24
3697;BME280;60662;48.810;8.872;2022-07-29T07:40:15;96454.44;;;22.94;56.75
3697;BME280;60662;48.810;8.872;2022-07-29T07:41:19;96459.03;;;23.38;56.30
3697;BME280;60662;48.810;8.872;2022-07-29T07:42:21;96458.59;;;23.87;54.85
3697;BME280;60662;48.810;8.872;2022-07-29T07:43:22;96457.72;;;23.87;55.05
3697;BME280;60662;48.810;8.872;2022-07-29T08:08:22;96461.09;;;24.84;50.47
3697;BME280;60662;48.810;8.872;2022-07-29T08:09:24;96467.16;;;25.11;49.95
3697;BME280;60662;48.810;8.872;2022-07-29T08:10:30;96459.19;;;25.19;48.84
3697;BME280;60662;48.810;8.872;2022-07-29T08:11:51;96459.47;;;25.00;48.96
3697;BME280;60662;48.810;8.872;2022-07-29T08:12:52;96462.00;;;25.09;48.89
3697;BME280;60662;48.810;8.872;2022-07-29T08:13:54;96471.03;;;24.66;50.03
3697;BME280;60662;48.810;8.872;2022-07-29T08:14:55;96464.31;;;24.53;50.07
3697;BME280;60662;48.810;8.872;2022-07-29T08:15:58;96463.72;;;24.68;49.63
3697;BME280;60662;48.810;8.872;2022-07-29T08:17:11;96466.91;;;24.80;49.78
3697;BME280;60662;48.810;8.872;2022-07-29T08:18:13;96460.75;;;24.79;49.12
3697;BME280;60662;48.810;8.872;2022-07-29T08:19:15;96463.06;;;24.74;48.27
3697;BME280;60662;48.810;8.872;2022-07-29T08:20:16;96460.81;;;25.12;48.09
3697;BME280;60662;48.810;8.872;2022-07-29T08:21:18;96463.97;;;25.07;48.59
3697;BME280;60662;48.810;8.872;2022-07-29T08:22:19;96447.41;;;24.79;48.84
3697;BME280;60662;48.810;8.872;2022-07-29T08:23:21;96464.28;;;24.88;49.10
3697;BME280;60662;48.810;8.872;2022-07-29T08:24:25;96463.50;;;25.12;48.56
3697;BME280;60662;48.810;8.872;2022-07-29T08:25:45;96466.03;;;25.30;48.50
3697;BME280;60662;48.810;8.872;2022-07-29T08:26:50;96464.91;;;25.74;47.92
3697;BME280;60662;48.810;8.872;2022-07-29T08:27:51;96461.38;;;25.82;47.16
3697;BME280;60662;48.810;8.872;2022-07-29T08:28:53;96460.22;;;25.84;47.26
3697;BME280;60662;48.810;8.872;2022-07-29T08:29:55;96457.69;;;26.07;46.87
3697;BME280;60662;48.810;8.872;2022-07-29T08:30:57;96462.19;;;26.23;46.41
3697;BME280;60662;48.810;8.872;2022-07-29T08:31:58;96468.66;;;26.29;46.29
3697;BME280;60662;48.810;8.872;2022-07-29T08:33:01;96474.06;;;26.13;46.33
3697;BME280;60662;48.810;8.872;2022-07-29T08:34:03;96467.22;;;25.94;46.87
3697;BME280;60662;48.810;8.872;2022-07-29T08:35:05;96459.19;;;26.10;46.56
3697;BME280;60662;48.810;8.872;2022-07-29T08:36:07;96467.38;;;25.92;46.33
3697;BME280;60662;48.810;8.872;2022-07-29T08:37:08;96468.88;;;25.95;47.08
3697;BME280;60662;48.810;8.872;2022-07-29T08:38:10;96469.00;;;26.34;46.28
3697;BME280;60662;48.810;8.872;2022-07-29T08:39:11;96471.88;;;26.16;45.92
3697;BME280;60662;48.810;8.872;2022-07-29T08:40:13;96473.38;;;26.02;46.47
3697;BME280;60662;48.810;8.872;2022-07-29T08:41:15;96464.22;;;25.72;46.57
3697;BME280;60662;48.810;8.872;2022-07-29T08:42:19;96464.53;;;25.94;46.56
3697;BME280;60662;48.810;8.872;2022-07-29T08:43:20;96461.69;;;26.12;45.67
3697;BME280;60662;48.810;8.872;2022-07-29T08:44:21;96473.50;;;26.34;45.49
3697;BME280;60662;48.810;8.872;2022-07-29T08:45:42;96470.03;;;26.65;45.30
3697;BME280;60662;48.810;8.872;2022-07-29T08:46:49;96471.72;;;26.66;44.45
3697;BME280;60662;48.810;8.872;2022-07-29T08:47:50;96465.75;;;26.95;43.86
3697;BME280;60662;48.810;8.872;2022-07-29T08:48:52;96466.72;;;27.26;43.06
3697;BME280;60662;48.810;8.872;2022-07-29T08:49:54;96471.38;;;27.32;42.35
3697;BME280;60662;48.810;8.872;2022-07-29T08:50:56;96462.34;;;27.10;41.95
3697;BME280;60662;48.810;8.872;2022-07-29T08:51:58;96464.56;;;26.98;42.91
3697;BME280;60662;48.810;8.872;2022-07-29T08:53:00;96465.84;;;27.10;42.59
3697;BME280;60662;48.810;8.872;2022-07-29T08:54:02;96472.88;;;26.80;42.50
3697;BME280;60662;48.810;8.872;2022-07-29T09:17:02;96468.00;;;28.23;39.67
3697;BME280;60662;48.810;8.872;2022-07-29T09:18:04;96467.53;;;27.81;39.81
3697;BME280;60662;48.810;8.872;2022-07-29T09:19:19;96442.44;;;27.27;40.29
3697;BME280;60662;48.810;8.872;2022-07-29T09:20:22;96466.22;;;27.30;41.30
3697;BME280;60662;48.810;8.872;2022-07-29T09:21:24;96467.41;;;27.28;41.20
3697;BME280;60662;48.810;8.872;2022-07-29T09:22:44;96460.16;;;27.60;40.75
3697;BME280;60662;48.810;8.872;2022-07-29T09:24:07;96463.16;;;27.80;40.11
3697;BME280;60662;48.810;8.872;2022-07-29T09:25:11;96454.31;;;27.94;39.12
3697;BME280;60662;48.810;8.872;2022-07-29T09:26:13;96463.06;;;28.11;39.06
3697;BME280;60662;48.810;8.872;2022-07-29T09:27:20;96464.75;;;28.42;38.75
3697;BME280;60662;48.810;8.872;2022-07-29T09:28:22;96461.38;;;28.55;38.13
3697;BME280;60662;48.810;8.872;2022-07-29T09:29:25;96459.81;;;28.61;38.72
3697;BME280;60662;48.810;8.872;2022-07-29T09:30:26;96464.28;;;28.69;38.19
3697;BME280;60662;48.810;8.872;2022-07-29T09:31:36;96469.13;;;28.95;37.44
3697;BME280;60662;48.810;8.872;2022-07-29T09:32:57;96453.69;;;28.82;37.36
3697;BME280;60662;48.810;8.872;2022-07-29T09:33:59;96458.06;;;28.83;37.23
3697;BME280;60662;48.810;8.872;2022-07-29T09:35:21;96459.09;;;29.40;35.87
3697;BME280;60662;48.810;8.872;2022-07-29T09:36:25;96452.47;;;29.36;35.83
3697;BME280;60662;48.810;8.872;2022-07-29T09:37:30;96459.06;;;29.84;35.11
3697;BME280;60662;48.810;8.872;2022-07-29T09:38:32;96460.91;;;30.05;34.98
3697;BME280;60662;48.810;8.872;2022-07-29T09:39:38;96461.97;;;30.10;34.06
3697;BME280;60662;48.810;8.872;2022-07-29T09:41:02;96457.22;;;29.84;35.08
3697;BME280;60662;48.810;8.872;2022-07-29T09:42:06;96457.13;;;29.99;34.79
3697;BME280;60662;48.810;8.872;2022-07-29T09:43:12;96449.88;;;29.49;35.15
3697;BME280;60662;48.810;8.872;2022-07-29T09:44:14;96455.97;;;29.58;35.39
3697;BME280;60662;48.810;8.872;2022-07-29T09:45:32;96451.41;;;29.15;35.73
3697;BME280;60662;48.810;8.872;2022-07-29T09:46:34;96453.81;;;29.10;36.46
3697;BME280;60662;48.810;8.872;2022-07-29T09:47:45;96449.53;;;29.16;35.84
3697;BME280;60662;48.810;8.872;2022-07-29T09:49:14;96454.41;;;28.91;36.16
3697;BME280;60662;48.810;8.872;2022-07-29T09:50:16;96455.81;;;28.57;36.20
3697;BME280;60662;48.810;8.872;2022-07-29T09:51:21;96452.88;;;28.07;37.29
3697;BME280;60662;48.810;8.872;2022-07-29T09:52:47;96448.47;;;27.76;37.14
3697;BME280;60662;48.810;8.872;2022-07-29T09:53:49;96446.34;;;27.86;37.38
3697;BME280;60662;48.810;8.872;2022-07-29T09:55:06;96447.41;;;27.77;37.56
3697;BME280;60662;48.810;8.872;2022-07-29T10:46:46;96453.91;;;24.85;42.63
3697;BME280;60662;48.810;8.872;2022-07-29T10:47:48;96455.97;;;25.07;41.50
3697;BME280;60662;48.810;8.872;2022-07-29T10:49:15;96457.50;;;25.18;41.26
3697;BME280;60662;48.810;8.872;2022-07-29T10:50:18;96456.88;;;25.41;40.90
3697;BME280;60662;48.810;8.872;2022-07-29T10:51:19;96458.66;;;25.16;44.60
3697;BME280;60662;48.810;8.872;2022-07-29T10:52:21;96451.63;;;24.98;45.29
3697;BME280;60662;48.810;8.872;2022-07-29T10:53:50;96455.53;;;24.69;46.99
3697;BME280;60662;48.810;8.872;2022-07-29T10:54:53;96446.50;;;24.27;47.90
3697;BME280;60662;48.810;8.872;2022-07-29T10:55:56;96453.28;;;24.48;47.67
3697;BME280;60662;48.810;8.872;2022-07-29T10:58:19;96450.09;;;24.53;47.96
3697;BME280;60662;48.810;8.872;2022-07-29T11:00:31;96455.13;;;25.15;46.46
3697;BME280;60662;48.810;8.872;2022-07-29T11:01:32;96448.50;;;25.19;45.77
3697;BME280;60662;48.810;8.872;2022-07-29T11:04:00;96447.31;;;26.04;44.95
3697;BME280;60662;48.810;8.872;2022-07-29T11:06:06;96437.59;;;26.60;42.75
3697;BME280;60662;48.810;8.872;2022-07-29T11:07:09;96437.44;;;27.01;41.72
3697;BME280;60662;48.810;8.872;2022-07-29T11:09:21;96445.53;;;27.16;41.66
3697;BME280;60662;48.810;8.872;2022-07-29T11:10:35;96444.09;;;27.05;41.56
3697;BME280;60662;48.810;8.872;2022-07-29T11:11:39;96437.66;;;26.91;39.94
3697;BME280;60662;48.810;8.872;2022-07-29T11:12:51;96442.09;;;27.07;39.57
3697;BME280;60662;48.810;8.872;2022-07-29T11:13:56;96446.56;;;27.15;39.58
3697;BME280;60662;48.810;8.872;2022-07-29T11:14:59;96444.47;;;27.25;39.05
3697;BME280;60662;48.810;8.872;2022-07-29T11:16:03;96440.41;;;27.06;38.85
3697;BME280;60662;48.810;8.872;2022-07-29T11:17:08;96437.53;;;26.84;38.52
3697;BME280;60662;48.810;8.872;2022-07-29T11:18:14;96429.88;;;26.65;39.38
3697;BME280;60662;48.810;8.872;2022-07-29T11:19:21;96431.31;;;27.15;38.46
3697;BME280;60662;48.810;8.872;2022-07-29T11:20:40;96438.16;;;27.41;37.92
3697;BME280;60662;48.810;8.872;2022-07-29T11:21:46;96429.22;;;27.26;37.43
3697;BME280;60662;48.810;8.872;2022-07-29T11:22:59;96411.78;;;26.75;37.88
3697;BME280;60662;48.810;8.872;2022-07-29T11:24:21;96429.00;;;26.81;38.42
3697;BME280;60662;48.810;8.872;2022-07-29T11:25:46;96440.13;;;27.24;37.88
3697;BME280;60662;48.810;8.872;2022-07-29T11:27:11;96445.84;;;25.69;46.29
3697;BME280;60662;48.810;8.872;2022-07-29T11:28:17;96460.53;;;25.65;47.86
3697;BME280;60662;48.810;8.872;2022-07-29T11:29:25;96451.84;;;25.38;48.01
3697;BME280;60662;48.810;8.872;2022-07-29T11:30:50;96450.31;;;25.19;48.41
3697;BME280;60662;48.810;8.872;2022-07-29T11:32:08;96449.66;;;25.25;48.10
3697;BME280;60662;48.810;8.872;2022-07-29T11:33:34;96454.63;;;25.03;48.60
3697;BME280;60662;48.810;8.872;2022-07-29T11:35:18;96452.94;;;24.94;50.19
3697;BME280;60662;48.810;8.872;2022-07-29T11:38:25;96447.81;;;23.97;52.26
3697;BME280;60662;48.810;8.872;2022-07-29T11:39:29;96453.09;;;23.89;52.59
3697;BME280;60662;48.810;8.872;2022-07-29T11:40:37;96449.94;;;24.20;52.30
3697;BME280;60662;48.810;8.872;2022-07-29T11:41:42;96453.84;;;24.25;52.13
3697;BME280;60662;48.810;8.872;2022-07-29T11:42:45;96450.84;;;24.28;51.40
3697;BME280;60662;48.810;8.872;2022-07-29T11:43:48;96446.28;;;23.68;52.92
3697;BME280;60662;48.810;8.872;2022-07-29T11:47:49;96450.31;;;23.72;52.91
3697;BME280;60662;48.810;8.872;2022-07-29T11:48:51;96449.66;;;23.96;52.23
3697;BME280;60662;48.810;8.872;2022-07-29T11:49:54;96449.56;;;23.88;51.95
3697;BME280;60662;48.810;8.872;2022-07-29T11:51:00;96445.69;;;24.35;50.14
3697;BME280;60662;48.810;8.872;2022-07-29T11:52:10;96456.59;;;24.42;50.26
3697;BME280;60662;48.810;8.872;2022-07-29T11:53:15;96452.78;;;24.18;49.81
3697;BME280;60662;48.810;8.872;2022-07-29T11:54:24;96458.00;;;24.28;49.56
3697;BME280;60662;48.810;8.872;2022-07-29T11:55:28;96458.94;;;24.19;49.97
3697;BME280;60662;48.810;8.872;2022-07-29T11:56:34;96452.44;;;24.13;49.40
3697;BME280;60662;48.810;8.872;2022-07-29T11:57:51;96461.25;;;23.87;50.92
3697;BME280;60662;48.810;8.872;2022-07-29T12:37:55;96448.72;;;24.40;49.91
3697;BME280;60662;48.810;8.872;2022-07-29T12:38:56;96454.84;;;23.98;51.36
3697;BME280;60662;48.810;8.872;2022-07-29T12:39:58;96448.84;;;23.96;51.50
3697;BME280;60662;48.810;8.872;2022-07-29T12:41:00;96453.13;;;23.71;52.98
3697;BME280;60662;48.810;8.872;2022-07-29T12:42:14;96463.00;;;23.34;55.45
3697;BME280;60662;48.810;8.872;2022-07-29T12:43:23;96454.63;;;23.29;57.17
3697;BME280;60662;48.810;8.872;2022-07-29T12:44:43;96458.53;;;23.07;58.95
3697;BME280;60662;48.810;8.872;2022-07-29T12:45:56;96462.06;;;22.61;60.29
3697;BME280;60662;48.810;8.872;2022-07-29T12:47:04;96455.53;;;22.74;60.14
3697;BME280;60662;48.810;8.872;2022-07-29T12:48:06;96464.38;;;22.92;58.77
3697;BME280;60662;48.810;8.872;2022-07-29T13:25:25;96488.81;;;22.12;60.67
3697;BME280;60662;48.810;8.872;2022-07-29T13:26:27;96489.06;;;22.19;60.40
3697;BME280;60662;48.810;8.872;2022-07-29T13:27:30;96491.06;;;22.17;60.09
3697;BME280;60662;48.810;8.872;2022-07-29T13:28:35;96482.03;;;22.38;59.65
3697;BME280;60662;48.810;8.872;2022-07-29T13:29:36;96490.38;;;22.53;58.79
3697;BME280;60662;48.810;8.872;2022-07-29T13:30:42;96474.00;;;22.75;57.23
3697;BME280;60662;48.810;8.872;2022-07-29T13:31:45;96470.47;;;22.85;57.23
3697;BME280;60662;48.810;8.872;2022-07-29T13:32:47;96483.78;;;23.30;56.69
3697;BME280;60662;48.810;8.872;2022-07-29T13:33:49;96479.78;;;23.53;55.62
3697;BME280;60662;48.810;8.872;2022-07-29T13:34:54;96477.00;;;23.80;53.77
3697;BME280;60662;48.810;8.872;2022-07-29T13:35:56;96469.38;;;24.04;53.93
3697;BME280;60662;48.810;8.872;2022-07-29T13:36:57;96470.13;;;24.22;52.63
3697;BME280;60662;48.810;8.872;2022-07-29T13:37:59;96475.59;;;24.12;52.40
3697;BME280;60662;48.810;8.872;2022-07-29T13:39:00;96475.84;;;24.27;51.26
3697;BME280;60662;48.810;8.872;2022-07-29T13:40:05;96479.53;;;24.26;50.68
3697;BME280;60662;48.810;8.872;2022-07-29T13:41:07;96473.16;;;24.27;50.76
3697;BME280;60662;48.810;8.872;2022-07-29T13:42:08;96477.50;;;24.28;50.92
3697;BME280;60662;48.810;8.872;2022-07-29T13:43:11;96482.56;;;24.32;50.27
3697;BME280;60662;48.810;8.872;2022-07-29T13:44:13;96480.19;;;24.28;49.00
3697;BME280;60662;48.810;8.872;2022-07-29T13:45:14;96486.06;;;24.40;48.70
3697;BME280;60662;48.810;8.872;2022-07-29T13:46:15;96479.47;;;24.53;48.62
3697;BME280;60662;48.810;8.872;2022-07-29T13:47:18;96480.09;;;24.46;48.19
3697;BME280;60662;48.810;8.872;2022-07-29T13:48:20;96476.50;;;24.56;48.11
3697;BME280;60662;48.810;8.872;2022-07-29T13:49:21;96470.91;;;24.41;49.30
3697;BME280;60662;48.810;8.872;2022-07-29T13:50:23;96467.53;;;24.31;49.90
3697;BME280;60662;48.810;8.872;2022-07-29T13:51:25;96478.63;;;24.52;49.50
3697;BME280;60662;48.810;8.872;2022-07-29T13:52:26;96474.28;;;24.51;50.61
3697;BME280;60662;48.810;8.872;2022-07-29T13:53:28;96468.78;;;24.53;51.03
3697;BME280;60662;48.810;8.872;2022-07-29T13:54:30;96467.59;;;24.47;51.28
3697;BME280;60662;48.810;8.872;2022-07-29T13:55:31;96461.06;;;24.41;51.63
3697;BME280;60662;48.810;8.872;2022-07-29T13:56:33;96468.78;;;24.53;50.50
3697;BME280;60662;48.810;8.872;2022-07-29T13:57:35;96449.28;;;24.60;49.95
3697;BME280;60662;48.810;8.872;2022-07-29T13:58:36;96456.41;;;24.43;50.47
3697;BME280;60662;48.810;8.872;2022-07-29T13:59:39;96452.78;;;24.18;50.94
3697;BME280;60662;48.810;8.872;2022-07-29T14:00:40;96460.69;;;24.28;51.22
3697;BME280;60662;48.810;8.872;2022-07-29T14:01:42;96457.94;;;24.46;51.29
3697;BME280;60662;48.810;8.872;2022-07-29T14:02:45;96454.28;;;24.55;49.63
3697;BME280;60662;48.810;8.872;2022-07-29T14:03:47;96454.13;;;24.57;48.92
3697;BME280;60662;48.810;8.872;2022-07-29T14:04:48;96454.38;;;24.37;48.55
3697;BME280;60662;48.810;8.872;2022-07-29T14:05:50;96451.75;;;24.45;48.12
3697;BME280;60662;48.810;8.872;2022-07-29T14:06:52;96444.94;;;24.51;47.87
3697;BME280;60662;48.810;8.872;2022-07-29T14:07:53;96450.91;;;24.45;48.23
3697;BME280;60662;48.810;8.872;2022-07-29T14:08:54;96454.25;;;24.47;47.71
3697;BME280;60662;48.810;8.872;2022-07-29T14:09:56;96445.44;;;24.55;47.49
3697;BME280;60662;48.810;8.872;2022-07-29T14:10:58;96447.19;;;24.64;47.83
3697;BME280;60662;48.810;8.872;2022-07-29T14:11:59;96444.91;;;24.77;48.04
3697;BME280;60662;48.810;8.872;2022-07-29T14:13:01;96449.28;;;24.95;48.17
3697;BME280;60662;48.810;8.872;2022-07-29T14:14:04;96446.13;;;25.08;48.03
3697;BME280;60662;48.810;8.872;2022-07-29T14:15:06;96451.69;;;24.72;48.54
3697;BME280;60662;48.810;8.872;2022-07-29T14:16:07;96452.56;;;24.72;48.91
3697;BME280;60662;48.810;8.872;2022-07-29T14:17:09;96452.69;;;24.71;49.50
3697;BME280;60662;48.810;8.872;2022-07-29T14:18:10;96445.91;;;24.85;49.51
3697;BME280;60662;48.810;8.872;2022-07-29T14:19:12;96449.47;;;25.02;48.45
3697;BME280;60662;48.810;8.872;2022-07-29T14:20:13;96456.16;;;25.22;48.14
3697;BME280;60662;48.810;8.872;2022-07-29T14:21:17;96444.78;;;25.20;47.61
3697;BME280;60662;48.810;8.872;2022-07-29T14:22:19;96449.31;;;25.12;47.53
3697;BME280;60662;48.810;8.872;2022-07-29T14:23:26;96450.66;;;25.16;47.51
3697;BME280;60662;48.810;8.872;2022-07-29T14:24:28;96444.16;;;25.18;47.36
3697;BME280;60662;48.810;8.872;2022-07-29T14:25:29;96446.63;;;24.95;45.97
3697;BME280;60662;48.810;8.872;2022-07-29T14:26:30;96448.66;;;25.26;45.63
3697;BME280;60662;48.810;8.872;2022-07-29T14:27:32;96442.16;;;25.37;46.50
3697;BME280;60662;48.810;8.872;2022-07-29T14:28:38;96442.34;;;25.52;46.16
3697;BME280;60662;48.810;8.872;2022-07-29T14:29:42;96440.63;;;25.18;47.37
3697;BME280;60662;48.810;8.872;2022-07-29T14:30:43;96445.34;;;25.40;44.04
3697;BME280;60662;48.810;8.872;2022-07-29T14:31:45;96446.03;;;25.42;43.42
3697;BME280;60662;48.810;8.872;2022-07-29T14:32:46;96443.69;;;25.48;42.67
3697;BME280;60662;48.810;8.872;2022-07-29T14:33:48;96446.84;;;25.59;42.34
3697;BME280;60662;48.810;8.872;2022-07-29T14:34:50;96444.69;;;25.55;43.41
3697;BME280;60662;48.810;8.872;2022-07-29T14:35:51;96445.88;;;25.52;43.30
3697;BME280;60662;48.810;8.872;2022-07-29T14:36:52;96441.34;;;25.61;43.71
3697;BME280;60662;48.810;8.872;2022-07-29T14:37:56;96454.72;;;25.61;43.83
3697;BME280;60662;48.810;8.872;2022-07-29T14:38:58;96449.53;;;25.68;44.21
3697;BME280;60662;48.810;8.872;2022-07-29T14:40:00;96443.84;;;25.63;44.07
3697;BME280;60662;48.810;8.872;2022-07-29T14:41:04;96439.84;;;25.50;44.08
3697;BME280;60662;48.810;8.872;2022-07-29T14:42:05;96450.38;;;25.60;45.37
3697;BME280;60662;48.810;8.872;2022-07-29T14:43:07;96451.22;;;25.52;40.87
3697;BME280;60662;48.810;8.872;2022-07-29T14:44:09;96454.34;;;25.72;40.87
3697;BME280;60662;48.810;8.872;2022-07-29T14:45:10;96452.69;;;25.63;39.23
3697;BME280;60662;48.810;8.872;2022-07-29T14:46:12;96461.22;;;25.83;38.77
3697;BME280;60662;48.810;8.872;2022-07-29T14:47:13;96456.50;;;26.10;38.15
3697;BME280;60662;48.810;8.872;2022-07-29T14:48:15;96454.34;;;26.05;36.99
3697;BME280;60662;48.810;8.872;2022-07-29T14:49:16;96454.28;;;26.22;38.95
3697;BME280;60662;48.810;8.872;2022-07-29T14:50:17;96450.63;;;26.23;38.11
3697;BME280;60662;48.810;8.872;2022-07-29T14:51:32;96449.84;;;26.06;36.92
3697;BME280;60662;48.810;8.872;2022-07-29T14:52:33;96449.97;;;25.96;36.80
3697;BME280;60662;48.810;8.872;2022-07-29T14:53:35;96457.50;;;26.01;36.69
3697;BME280;60662;48.810;8.872;2022-07-29T14:54:37;96457.47;;;26.26;37.02
3697;BME280;60662;48.810;8.872;2022-07-29T14:55:39;96456.97;;;26.30;36.49
3697;BME280;60662;48.810;8.872;2022-07-29T14:56:41;96454.75;;;26.42;36.20
3697;BME280;60662;48.810;8.872;2022-07-29T14:57:47;96449.16;;;26.60;36.32
3697;BME280;60662;48.810;8.872;2022-07-29T14:58:49;96450.00;;;26.61;35.98
3697;BME280;60662;48.810;8.872;2022-07-29T14:59:52;96453.50;;;26.61;35.87
3697;BME280;60662;48.810;8.872;2022-07-29T15:00:53;96454.06;;;26.88;35.47
3697;BME280;60662;48.810;8.872;2022-07-29T15:01:56;96454.78;;;26.82;35.24
3697;BME280;60662;48.810;8.872;2022-07-29T15:02:58;96445.63;;;26.68;35.51
3697;BME280;60662;48.810;8.872;2022-07-29T15:04:03;96451.94;;;26.35;35.58
3697;BME280;60662;48.810;8.872;2022-07-29T15:05:04;96448.44;;;26.27;36.22
3697;BME280;60662;48.810;8.872;2022-07-29T15:06:06;96450.44;;;26.33;36.02
3697;BME280;60662;48.810;8.872;2022-07-29T15:07:08;96458.09;;;26.36;36.19
3697;BME280;60662;48.810;8.872;2022-07-29T15:08:09;96450.78;;;26.30;36.38
3697;BME280;60662;48.810;8.872;2022-07-29T15:09:11;96452.28;;;26.32;36.26
3697;BME280;60662;48.810;8.872;2022-07-29T15:10:12;96455.72;;;26.49;36.30
3697;BME280;60662;48.810;8.872;2022-07-29T15:11:15;96457.72;;;26.55;36.24
3697;BME280;60662;48.810;8.872;2022-07-29T15:12:18;96457.03;;;26.62;36.38
3697;BME280;60662;48.810;8.872;2022-07-29T15:42:06;96466.53;;;26.16;36.89
3697;BME280;60662;48.810;8.872;2022-07-29T15:43:07;96457.00;;;25.89;37.19
3697;BME280;60662;48.810;8.872;2022-07-29T15:44:09;96458.34;;;26.01;37.24
3697;BME280;60662;48.810;8.872;2022-07-29T15:45:10;96463.84;;;26.16;37.44
3697;BME280;60662;48.810;8.872;2022-07-29T15:46:15;96462.84;;;26.01;37.35
3697;BME280;60662;48.810;8.872;2022-07-29T15:47:36;96464.34;;;25.95;37.80
3697;BME280;60662;48.810;8.872;2022-07-29T15:48:38;96460.50;;;25.98;37.61
3697;BME280;60662;48.810;8.872;2022-07-29T15:49:40;96464.03;;;26.15;37.32
3697;BME280;60662;48.810;8.872;2022-07-29T15:50:49;96471.56;;;26.11;37.48
3697;BME280;60662;48.810;8.872;2022-07-29T15:51:54;96468.34;;;26.24;37.45
3697;BME280;60662;48.810;8.872;2022-07-29T15:53:01;96467.84;;;26.20;37.37
3697;BME280;60662;48.810;8.872;2022-07-29T15:54:03;96458.81;;;26.21;37.31
3697;BME280;60662;48.810;8.872;2022-07-29T15:55:05;96460.97;;;26.34;37.28
3697;BME280;60662;48.810;8.872;2022-07-29T15:56:07;96468.13;;;26.42;37.66
3697;BME280;60662;48.810;8.872;2022-07-29T15:57:08;96467.50;;;26.32;37.37
3697;BME280;60662;48.810;8.872;2022-07-29T15:58:10;96467.28;;;26.42;37.23
3697;BME280;60662;48.810;8.872;2022-07-29T15:59:11;96465.03;;;26.14;37.42
3697;BME280;60662;48.810;8.872;2022-07-29T16:00:22;96468.69;;;26.21;37.69
3697;BME280;60662;48.810;8.872;2022-07-29T16:01:24;96469.06;;;26.10;37.83
3697;BME280;60662;48.810;8.872;2022-07-29T16:02:27;96467.03;;;26.20;37.47
3697;BME280;60662;48.810;8.872;2022-07-29T16:03:28;96462.72;;;26.11;37.59
3697;BME280;60662;48.810;8.872;2022-07-29T16:04:30;96460.53;;;25.89;37.81
3697;BME280;60662;48.810;8.872;2022-07-29T16:05:32;96468.38;;;25.91;37.95
3697;BME280;60662;48.810;8.872;2022-07-29T16:06:33;96456.66;;;26.00;38.14
3697;BME280;60662;48.810;8.872;2022-07-29T16:07:35;96458.69;;;25.98;38.02